Time;durP1;ratioP1;P1;durP2;ratioP2;P2;SDS_P1;SDS_P2;PMS_P1;PMS_P2;Temp;Humidity;BMP_temperature;BMP_pressure;BME280_temperature;BME280_humidity;BME280_pressure;Samples;Min_cycle;Max_cycle;Signal;HPM_P1;HPM_P2
2022/11/15 00:00:09;;;;;;;16.65;12.13;;;;;;;;;;5024403;23;20056;-73
2022/11/15 00:02:54;;;;;;;16.17;12.05;;;;;;;;;;4976017;28;20062;-72
2022/11/15 00:05:38;;;;;;;14.55;11.30;;;;;;;;;;4977785;28;20084;-72
2022/11/15 00:08:22;;;;;;;16.55;11.88;;;;;;;;;;4977171;28;20041;-72
2022/11/15 00:11:06;;;;;;;19.63;12.70;;;;;;;;;;4977782;28;20062;-72
2022/11/15 00:13:50;;;;;;;16.27;11.45;;;;;;;;;;4977948;28;20098;-72
2022/11/15 00:16:33;;;;;;;15.05;10.90;;;;;;;;;;4977782;28;20045;-72
2022/11/15 00:19:18;;;;;;;14.35;11.13;;;;;;;;;;4977701;28;20117;-72
2022/11/15 00:22:02;;;;;;;13.43;10.65;;;;;;;;;;4977768;28;20046;-72
2022/11/15 00:24:46;;;;;;;11.10;9.68;;;;;;;;;;4976478;28;20097;-72
2022/11/15 00:27:30;;;;;;;11.60;9.95;;;;;;;;;;4977144;28;20049;-72
2022/11/15 00:30:14;;;;;;;11.57;9.63;;;;;;;;;;4977625;28;20493;-72
2022/11/15 00:33:05;;;;;;;13.93;10.02;;;;;;;;;;4976260;28;20046;-72
2022/11/15 00:35:49;;;;;;;10.73;9.02;;;;;;;;;;4977487;28;20078;-72
2022/11/15 00:38:33;;;;;;;12.95;10.57;;;;;;;;;;4977234;28;20093;-73
2022/11/15 00:41:17;;;;;;;13.20;11.40;;;;;;;;;;4989927;28;20496;-73
2022/11/15 00:44:01;;;;;;;12.38;10.02;;;;;;;;;;4976788;28;20042;-72
2022/11/15 00:46:45;;;;;;;15.98;12.18;;;;;;;;;;4976639;28;20085;-72
2022/11/15 00:49:29;;;;;;;19.05;12.52;;;;;;;;;;4977372;28;20046;-73
2022/11/15 00:52:14;;;;;;;17.45;12.95;;;;;;;;;;4977120;28;20093;-73
2022/11/15 00:54:58;;;;;;;17.48;12.05;;;;;;;;;;4976736;28;20065;-73
2022/11/15 00:57:42;;;;;;;19.13;12.52;;;;;;;;;;4976949;28;20045;-73
2022/11/15 01:00:26;;;;;;;17.52;12.07;;;;;;;;;;4976793;28;20042;-73
2022/11/15 01:03:10;;;;;;;19.40;13.23;;;;;;;;;;4977249;28;20042;-73
2022/11/15 01:05:58;;;;;;;19.85;14.05;;;;;;;;;;4976673;28;20469;-74
2022/11/15 01:08:42;;;;;;;18.55;12.38;;;;;;;;;;4976753;28;20046;-74
2022/11/15 01:11:28;;;;;;;30.77;14.48;;;;;;;;;;4975869;28;20089;-74
2022/11/15 01:14:11;;;;;;;22.92;13.70;;;;;;;;;;4977027;28;20107;-74
2022/11/15 01:16:56;;;;;;;19.17;12.23;;;;;;;;;;4976154;28;20038;-74
2022/11/15 01:19:40;;;;;;;16.08;11.07;;;;;;;;;;4976679;28;20042;-73
2022/11/15 01:22:25;;;;;;;12.30;9.35;;;;;;;;;;4975423;28;20553;-74
2022/11/15 01:25:09;;;;;;;13.07;9.63;;;;;;;;;;4976283;28;20170;-74
2022/11/15 01:27:53;;;;;;;16.10;11.23;;;;;;;;;;4976799;28;20088;-74
2022/11/15 01:30:37;;;;;;;19.02;12.40;;;;;;;;;;4976362;28;20398;-74
2022/11/15 01:33:21;;;;;;;16.83;11.60;;;;;;;;;;4976322;28;20034;-74
2022/11/15 01:36:06;;;;;;;20.13;12.82;;;;;;;;;;4976161;28;20097;-73
2022/11/15 01:38:55;;;;;;;18.27;12.52;;;;;;;;;;4976543;28;20113;-73
2022/11/15 01:41:38;;;;;;;13.05;9.73;;;;;;;;;;4975205;28;20078;-73
2022/11/15 01:44:47;;;;;;;12.45;10.05;;;;;;;;;;4975598;28;20030;-73
2022/11/15 01:47:33;;;;;;;13.25;10.30;;;;;;;;;;4975582;28;20041;-74
2022/11/15 01:50:19;;;;;;;10.20;9.10;;;;;;;;;;4975727;28;20057;-73
2022/11/15 01:53:03;;;;;;;12.00;9.40;;;;;;;;;;4975698;28;20049;-73
2022/11/15 01:55:47;;;;;;;9.70;8.57;;;;;;;;;;4975720;28;20049;-74
2022/11/15 01:58:32;;;;;;;8.50;7.65;;;;;;;;;;4974831;28;20042;-74
2022/11/15 02:01:16;;;;;;;8.55;7.68;;;;;;;;;;4975209;28;20049;-74
2022/11/15 02:04:19;;;;;;;9.25;8.00;;;;;;;;;;4975634;28;20093;-73
2022/11/15 02:07:04;;;;;;;10.48;9.15;;;;;;;;;;4975292;28;20045;-73
2022/11/15 02:09:49;;;;;;;9.73;8.20;;;;;;;;;;4975696;28;20173;-74
2022/11/15 02:12:34;;;;;;;10.13;8.68;;;;;;;;;;4975662;28;20062;-73
2022/11/15 02:15:18;;;;;;;10.45;8.55;;;;;;;;;;4975367;28;20065;-73
2022/11/15 02:18:10;;;;;;;10.38;9.32;;;;;;;;;;4988475;28;20097;-74
2022/11/15 02:21:13;;;;;;;11.77;8.95;;;;;;;;;;4975606;28;20502;-74
2022/11/15 02:24:17;;;;;;;9.55;8.57;;;;;;;;;;4960677;28;20514;-74
2022/11/15 02:27:04;;;;;;;9.85;8.85;;;;;;;;;;4974246;28;20042;-73
2022/11/15 02:29:51;;;;;;;11.10;8.98;;;;;;;;;;4975193;28;20041;-73
2022/11/15 02:32:48;;;;;;;9.73;8.75;;;;;;;;;;4975045;28;20109;-73
2022/11/15 02:35:34;;;;;;;12.32;8.93;;;;;;;;;;4975205;28;20493;-73
2022/11/15 02:38:45;;;;;;;11.63;9.32;;;;;;;;;;4975166;28;20042;-73
2022/11/15 02:41:46;;;;;;;11.65;9.40;;;;;;;;;;4975073;28;20067;-74
2022/11/15 02:44:43;;;;;;;10.23;9.02;;;;;;;;;;4975263;28;20038;-74
2022/11/15 02:47:29;;;;;;;9.90;8.90;;;;;;;;;;4975000;28;20389;-74
2022/11/15 02:50:18;;;;;;;10.52;9.05;;;;;;;;;;4975407;28;20070;-74
2022/11/15 02:53:03;;;;;;;11.15;9.40;;;;;;;;;;4974704;28;20042;-74
2022/11/15 02:55:49;;;;;;;10.35;9.15;;;;;;;;;;4975190;28;20042;-74
2022/11/15 02:58:52;;;;;;;11.10;9.13;;;;;;;;;;4974802;28;20050;-73
2022/11/15 03:01:46;;;;;;;6.47;5.97;;;;;;;;;;4974592;28;20074;-74
2022/11/15 03:04:42;;;;;;;6.10;5.60;;;;;;;;;;4975009;28;20497;-73
2022/11/15 03:07:29;;;;;;;5.53;5.13;;;;;;;;;;4974943;28;20042;-73
2022/11/15 03:10:34;;;;;;;7.82;5.78;;;;;;;;;;4977583;28;20045;-73
2022/11/15 03:13:26;;;;;;;5.93;5.47;;;;;;;;;;4978677;28;20046;-73
2022/11/15 03:16:14;;;;;;;5.93;5.35;;;;;;;;;;4978681;28;20077;-74
2022/11/15 03:19:05;;;;;;;5.50;5.10;;;;;;;;;;4979316;28;20093;-74
2022/11/15 03:21:50;;;;;;;5.70;5.30;;;;;;;;;;4978347;28;20085;-74
2022/11/15 03:24:36;;;;;;;6.00;5.50;;;;;;;;;;4978874;28;20422;-73
2022/11/15 03:27:21;;;;;;;5.65;5.25;;;;;;;;;;4978679;28;20138;-74
2022/11/15 03:30:07;;;;;;;6.60;6.00;;;;;;;;;;4979110;28;20399;-74
2022/11/15 03:32:53;;;;;;;6.80;6.10;;;;;;;;;;4978696;28;20038;-74
2022/11/15 03:35:40;;;;;;;5.88;5.38;;;;;;;;;;4978311;28;20115;-74
2022/11/15 03:38:25;;;;;;;6.60;6.03;;;;;;;;;;4978479;28;20038;-73
2022/11/15 03:41:15;;;;;;;7.72;6.93;;;;;;;;;;4978480;28;20086;-74
2022/11/15 03:44:04;;;;;;;7.80;7.05;;;;;;;;;;4978700;28;20455;-74
2022/11/15 03:46:56;;;;;;;10.32;8.15;;;;;;;;;;4978386;28;20442;-74
2022/11/15 03:49:46;;;;;;;9.10;7.72;;;;;;;;;;4978293;28;20038;-74
2022/11/15 03:52:32;;;;;;;7.45;6.75;;;;;;;;;;4977939;28;20049;-74
2022/11/15 03:55:20;;;;;;;6.85;6.15;;;;;;;;;;4977861;28;20038;-74
2022/11/15 03:58:04;;;;;;;6.68;5.97;;;;;;;;;;4978179;28;20069;-74
2022/11/15 04:00:49;;;;;;;5.82;5.40;;;;;;;;;;4977770;28;20053;-74
2022/11/15 04:03:33;;;;;;;6.30;5.78;;;;;;;;;;4978118;28;20446;-74
2022/11/15 04:06:17;;;;;;;5.65;5.22;;;;;;;;;;4977955;28;20086;-74
2022/11/15 04:09:00;;;;;;;6.78;6.05;;;;;;;;;;4978021;28;20118;-75
2022/11/15 04:11:45;;;;;;;9.88;7.38;;;;;;;;;;4977861;28;20141;-75
2022/11/15 04:14:28;;;;;;;13.82;9.07;;;;;;;;;;4978272;28;20077;-74
2022/11/15 04:17:14;;;;;;;15.68;12.32;;;;;;;;;;4977741;28;20078;-74
2022/11/15 04:26:13;;;;;;;13.18;10.45;;;;;;;;;;4977428;28;20049;-75
2022/11/15 04:32:00;;;;;;;13.65;10.68;;;;;;;;;;4978022;28;20045;-74
2022/11/15 04:34:45;;;;;;;9.00;7.78;;;;;;;;;;4977404;28;20098;-74
2022/11/15 04:37:29;;;;;;;8.13;7.32;;;;;;;;;;4977343;28;20038;-74
2022/11/15 04:40:13;;;;;;;8.48;7.60;;;;;;;;;;4977493;28;20117;-74
2022/11/15 04:42:57;;;;;;;8.43;7.60;;;;;;;;;;4977405;28;20046;-74
2022/11/15 04:45:41;;;;;;;8.52;7.63;;;;;;;;;;4977381;28;20038;-73
2022/11/15 04:48:27;;;;;;;8.95;8.05;;;;;;;;;;4976602;28;20096;-74
2022/11/15 04:51:11;;;;;;;8.88;7.90;;;;;;;;;;4977109;28;20510;-72
2022/11/15 04:53:55;;;;;;;8.98;7.28;;;;;;;;;;4976591;28;20057;-73
2022/11/15 04:56:39;;;;;;;8.98;7.43;;;;;;;;;;4976640;28;20058;-73
2022/11/15 04:59:23;;;;;;;8.77;7.50;;;;;;;;;;4976947;28;20042;-73
2022/11/15 05:02:07;;;;;;;7.95;7.18;;;;;;;;;;4976472;28;20078;-73
2022/11/15 05:04:51;;;;;;;7.53;6.88;;;;;;;;;;4975685;28;20102;-73
2022/11/15 05:07:36;;;;;;;7.57;6.88;;;;;;;;;;4976427;28;20045;-73
2022/11/15 05:10:20;;;;;;;8.63;7.63;;;;;;;;;;4977204;28;20497;-75
2022/11/15 05:13:04;;;;;;;8.50;7.40;;;;;;;;;;4976815;28;20084;-73
2022/11/15 05:15:48;;;;;;;9.35;7.70;;;;;;;;;;4976626;28;20045;-73
2022/11/15 05:18:33;;;;;;;8.57;7.68;;;;;;;;;;4976714;28;20038;-73
2022/11/15 05:21:17;;;;;;;12.48;8.75;;;;;;;;;;4976343;28;20042;-73
2022/11/15 05:24:03;;;;;;;9.25;8.23;;;;;;;;;;4976829;28;20042;-73
2022/11/15 05:26:47;;;;;;;9.48;7.63;;;;;;;;;;4976552;28;20077;-73
2022/11/15 05:29:34;;;;;;;9.45;7.80;;;;;;;;;;4976600;28;20097;-73
2022/11/15 05:32:18;;;;;;;8.15;7.30;;;;;;;;;;4975063;28;20054;-73
2022/11/15 05:35:02;;;;;;;7.30;6.60;;;;;;;;;;4976106;28;20395;-73
2022/11/15 05:37:46;;;;;;;8.02;7.10;;;;;;;;;;4975946;28;20502;-73
2022/11/15 05:40:33;;;;;;;9.77;7.57;;;;;;;;;;4975850;28;20077;-74
2022/11/15 05:43:17;;;;;;;8.77;7.88;;;;;;;;;;4975553;28;20046;-72
2022/11/15 05:46:04;;;;;;;9.55;8.50;;;;;;;;;;4976162;28;20450;-72
2022/11/15 05:48:49;;;;;;;13.68;8.48;;;;;;;;;;4976145;28;20121;-72
2022/11/15 05:51:34;;;;;;;11.50;8.15;;;;;;;;;;4974946;28;20041;-72
2022/11/15 05:54:19;;;;;;;26.83;14.80;;;;;;;;;;4973462;28;20041;-72
2022/11/15 05:57:04;;;;;;;22.35;13.30;;;;;;;;;;4974213;28;20104;-72
2022/11/15 05:59:48;;;;;;;8.50;5.63;;;;;;;;;;4973479;28;20073;-72
2022/11/15 06:02:32;;;;;;;8.68;6.78;;;;;;;;;;4974162;28;20093;-72
2022/11/15 06:05:16;;;;;;;9.20;6.47;;;;;;;;;;4974497;28;20090;-72
2022/11/15 06:08:00;;;;;;;7.57;6.72;;;;;;;;;;4973710;28;20486;-72
2022/11/15 06:10:44;;;;;;;13.48;6.78;;;;;;;;;;4974551;28;20038;-72
2022/11/15 06:13:28;;;;;;;11.23;7.50;;;;;;;;;;4973935;28;20548;-72
2022/11/15 06:16:12;;;;;;;8.88;7.32;;;;;;;;;;4974598;28;20514;-72
2022/11/15 06:18:56;;;;;;;15.50;10.35;;;;;;;;;;4974405;28;20077;-70
2022/11/15 06:21:40;;;;;;;12.20;9.30;;;;;;;;;;4973818;28;20090;-71
2022/11/15 06:24:24;;;;;;;10.02;8.63;;;;;;;;;;4973259;28;20044;-71
2022/11/15 06:27:08;;;;;;;11.85;7.70;;;;;;;;;;4974220;28;20455;-71
2022/11/15 06:29:52;;;;;;;8.93;7.13;;;;;;;;;;4974129;28;20514;-72
2022/11/15 06:32:36;;;;;;;9.45;8.25;;;;;;;;;;4973743;28;20096;-72
2022/11/15 06:35:20;;;;;;;10.57;8.15;;;;;;;;;;4974520;28;20038;-72
2022/11/15 06:38:05;;;;;;;9.55;7.95;;;;;;;;;;4973991;28;20037;-72
2022/11/15 06:40:49;;;;;;;11.93;8.70;;;;;;;;;;4975409;28;20414;-72
2022/11/15 06:43:33;;;;;;;330.90;116.43;;;;;;;;;;4975331;28;20041;-72
2022/11/15 06:46:17;;;;;;;62.05;28.40;;;;;;;;;;4975603;28;20192;-72
2022/11/15 06:49:01;;;;;;;13.77;10.13;;;;;;;;;;4975305;28;20042;-72
2022/11/15 06:51:45;;;;;;;16.45;9.80;;;;;;;;;;4973971;28;20058;-72
2022/11/15 06:54:29;;;;;;;12.45;9.27;;;;;;;;;;4974615;28;20042;-72
2022/11/15 06:57:13;;;;;;;13.80;9.98;;;;;;;;;;4975275;28;20562;-72
2022/11/15 06:59:57;;;;;;;12.93;9.70;;;;;;;;;;4975323;28;20133;-72
2022/11/15 07:02:41;;;;;;;12.48;9.65;;;;;;;;;;4975190;28;20127;-72
2022/11/15 07:05:25;;;;;;;12.32;9.68;;;;;;;;;;4974915;28;20100;-72
2022/11/15 07:08:09;;;;;;;12.13;8.98;;;;;;;;;;4960793;28;20041;-72
2022/11/15 07:10:53;;;;;;;14.07;9.23;;;;;;;;;;4975118;28;20509;-72
2022/11/15 07:13:38;;;;;;;16.15;9.98;;;;;;;;;;4974859;28;20499;-72
2022/11/15 07:16:22;;;;;;;18.33;12.30;;;;;;;;;;4975337;28;20049;-72
2022/11/15 07:19:06;;;;;;;28.00;16.23;;;;;;;;;;4975028;28;20062;-72
2022/11/15 07:21:50;;;;;;;25.30;15.82;;;;;;;;;;4975069;28;20050;-72
2022/11/15 07:24:34;;;;;;;22.25;13.93;;;;;;;;;;4975303;28;20435;-72
2022/11/15 07:27:18;;;;;;;18.38;12.90;;;;;;;;;;4974967;28;20129;-72
2022/11/15 07:30:02;;;;;;;22.85;13.85;;;;;;;;;;4975245;28;20034;-72
2022/11/15 07:32:46;;;;;;;16.65;12.30;;;;;;;;;;4975062;28;20049;-72
2022/11/15 07:35:30;;;;;;;15.98;12.20;;;;;;;;;;4960024;28;20042;-72
2022/11/15 07:38:15;;;;;;;19.92;12.57;;;;;;;;;;4974630;28;20073;-72
2022/11/15 07:41:04;;;;;;;19.25;12.02;;;;;;;;;;4960299;28;20107;-72
2022/11/15 07:43:51;;;;;;;42.22;21.65;;;;;;;;;;4974798;28;20045;-72
2022/11/15 07:46:34;;;;;;;79.45;37.20;;;;;;;;;;4975116;28;20049;-72
2022/11/15 07:49:18;;;;;;;49.85;25.13;;;;;;;;;;4974757;28;20057;-72
2022/11/15 07:52:02;;;;;;;23.13;15.57;;;;;;;;;;4974678;28;20392;-72
2022/11/15 07:54:46;;;;;;;18.98;13.07;;;;;;;;;;4974016;28;20563;-72
2022/11/15 07:57:30;;;;;;;20.88;14.32;;;;;;;;;;4977610;28;20165;-72
2022/11/15 08:00:14;;;;;;;17.58;13.50;;;;;;;;;;4963371;28;20166;-72
2022/11/15 08:03:06;;;;;;;23.30;13.23;;;;;;;;;;4978127;28;20042;-72
2022/11/15 08:05:50;;;;;;;17.85;13.20;;;;;;;;;;4978350;28;20049;-72
2022/11/15 08:08:34;;;;;;;15.70;12.02;;;;;;;;;;4978066;28;20046;-72
2022/11/15 08:11:18;;;;;;;15.27;12.18;;;;;;;;;;4977941;28;20126;-72
2022/11/15 08:14:02;;;;;;;14.38;10.65;;;;;;;;;;4977638;28;20071;-72
2022/11/15 08:16:46;;;;;;;13.60;10.88;;;;;;;;;;4977589;28;20514;-72
2022/11/15 08:19:30;;;;;;;12.43;10.95;;;;;;;;;;4978136;28;20081;-72
2022/11/15 08:22:14;;;;;;;15.30;11.38;;;;;;;;;;4978043;28;20042;-72
2022/11/15 08:24:58;;;;;;;14.05;10.40;;;;;;;;;;4977778;28;20045;-72
2022/11/15 08:27:43;;;;;;;11.77;9.35;;;;;;;;;;4977450;28;20542;-72
2022/11/15 08:30:27;;;;;;;12.35;9.25;;;;;;;;;;4977957;28;20042;-72
2022/11/15 08:33:12;;;;;;;13.38;10.00;;;;;;;;;;4977710;28;20037;-72
2022/11/15 08:35:57;;;;;;;12.57;10.13;;;;;;;;;;4990047;28;20034;-72
2022/11/15 08:38:49;;;;;;;13.93;9.65;;;;;;;;;;4977771;28;20093;-72
2022/11/15 08:41:36;;;;;;;11.98;9.93;;;;;;;;;;4977451;28;20486;-72
2022/11/15 08:44:20;;;;;;;11.95;9.75;;;;;;;;;;4976683;28;20089;-72
2022/11/15 08:47:03;;;;;;;10.35;9.07;;;;;;;;;;4977646;28;20069;-72
2022/11/15 08:49:47;;;;;;;16.67;11.15;;;;;;;;;;4977542;28;20378;-72
2022/11/15 08:52:31;;;;;;;15.95;11.88;;;;;;;;;;4977424;28;20053;-72
2022/11/15 08:55:15;;;;;;;16.38;11.68;;;;;;;;;;4976928;28;20050;-72
2022/11/15 08:57:59;;;;;;;18.58;13.13;;;;;;;;;;4977146;28;20046;-72
2022/11/15 09:00:43;;;;;;;18.35;12.32;;;;;;;;;;4977067;28;20085;-72
2022/11/15 09:03:27;;;;;;;18.05;12.57;;;;;;;;;;4977035;28;20042;-72
2022/11/15 09:06:12;;;;;;;17.02;12.30;;;;;;;;;;4976985;28;20102;-72
2022/11/15 09:08:56;;;;;;;15.02;11.38;;;;;;;;;;4976670;28;20045;-72
2022/11/15 09:11:40;;;;;;;16.27;11.60;;;;;;;;;;4976896;28;20037;-72
2022/11/15 09:14:24;;;;;;;16.55;11.70;;;;;;;;;;4977084;28;20046;-72
2022/11/15 09:17:08;;;;;;;12.95;10.00;;;;;;;;;;4976750;28;20541;-72
2022/11/15 09:19:52;;;;;;;14.15;10.15;;;;;;;;;;4976713;28;20387;-72
2022/11/15 09:22:38;;;;;;;12.07;10.23;;;;;;;;;;4976962;28;20538;-72
2022/11/15 09:25:22;;;;;;;12.25;8.82;;;;;;;;;;4976893;28;20037;-72
2022/11/15 09:28:06;;;;;;;12.07;8.13;;;;;;;;;;4976306;28;20049;-72
2022/11/15 09:30:51;;;;;;;13.68;8.50;;;;;;;;;;4976783;28;20041;-72
2022/11/15 09:33:35;;;;;;;12.43;8.82;;;;;;;;;;4976527;28;20049;-72
2022/11/15 09:36:19;;;;;;;10.25;7.65;;;;;;;;;;4976413;28;20050;-72
2022/11/15 09:39:03;;;;;;;13.15;9.32;;;;;;;;;;4976363;28;20042;-72
2022/11/15 09:41:47;;;;;;;11.30;7.90;;;;;;;;;;4976563;28;20042;-72
2022/11/15 09:44:34;;;;;;;9.95;7.18;;;;;;;;;;4976304;28;20105;-72
2022/11/15 09:47:32;;;;;;;20.70;13.55;;;;;;;;;;4976227;28;20042;-72
2022/11/15 09:50:33;;;;;;;13.88;10.55;;;;;;;;;;4964191;28;20043;-72
2022/11/15 09:52:58;;;;;;;12.18;9.52;;;;;;;;;;4975046;28;20459;-72
2022/11/15 09:55:40;;;;;;;12.90;9.35;;;;;;;;;;4974342;28;20098;-72
2022/11/15 09:58:19;;;;;;;11.88;9.15;;;;;;;;;;4974219;28;20089;-72
2022/11/15 10:00:48;;;;;;;12.20;9.80;;;;;;;;;;4974133;28;20081;-72
2022/11/15 10:03:15;;;;;;;12.60;9.90;;;;;;;;;;4975675;28;20117;-72
2022/11/15 10:05:42;;;;;;;11.05;9.60;;;;;;;;;;4975344;28;20467;-72
2022/11/15 10:08:10;;;;;;;12.70;9.57;;;;;;;;;;4974451;28;20026;-72
2022/11/15 10:10:43;;;;;;;13.45;10.02;;;;;;;;;;4974411;28;20046;-71
2022/11/15 10:13:22;;;;;;;13.85;9.00;;;;;;;;;;4973972;28;20026;-72
2022/11/15 10:15:48;;;;;;;14.18;9.45;;;;;;;;;;4974026;28;20471;-71
2022/11/15 10:18:13;;;;;;;12.80;10.23;;;;;;;;;;4975261;28;20050;-71
2022/11/15 10:20:44;;;;;;;14.65;9.73;;;;;;;;;;4974993;28;20077;-72
2022/11/15 10:23:15;;;;;;;13.65;10.02;;;;;;;;;;4974211;28;20035;-72
2022/11/15 10:25:40;;;;;;;12.25;9.07;;;;;;;;;;4990410;28;20039;-72
2022/11/15 10:28:12;;;;;;;15.38;10.13;;;;;;;;;;4975026;28;20076;-72
2022/11/15 10:30:39;;;;;;;12.13;9.35;;;;;;;;;;4975651;28;20042;-72
2022/11/15 10:33:23;;;;;;;17.38;10.30;;;;;;;;;;4975239;28;20022;-72
2022/11/15 10:35:53;;;;;;;12.98;8.52;;;;;;;;;;4975294;28;20034;-71
2022/11/15 10:38:18;;;;;;;14.52;9.95;;;;;;;;;;4975193;28;20383;-71
2022/11/15 10:40:44;;;;;;;12.98;9.27;;;;;;;;;;4975188;28;20019;-71
2022/11/15 10:43:15;;;;;;;14.65;8.40;;;;;;;;;;4974843;28;20065;-72
2022/11/15 10:45:40;;;;;;;10.77;8.05;;;;;;;;;;4975135;28;20030;-71
2022/11/15 10:48:12;;;;;;;12.88;9.32;;;;;;;;;;4975091;28;20046;-71
2022/11/15 10:50:37;;;;;;;10.93;7.88;;;;;;;;;;4973528;28;20472;-71
2022/11/15 10:53:03;;;;;;;14.25;9.93;;;;;;;;;;4975017;28;20026;-71
2022/11/15 10:55:30;;;;;;;14.00;9.45;;;;;;;;;;4974707;28;20451;-72
2022/11/15 10:58:00;;;;;;;8.93;7.25;;;;;;;;;;4974959;28;20054;-72
2022/11/15 11:00:34;;;;;;;10.60;7.25;;;;;;;;;;4973170;28;20417;-72
2022/11/15 11:03:04;;;;;;;9.38;7.03;;;;;;;;;;4974913;28;20038;-72
2022/11/15 11:05:29;;;;;;;15.02;10.07;;;;;;;;;;4974971;28;20035;-72
2022/11/15 11:07:58;;;;;;;15.32;9.50;;;;;;;;;;4974611;28;20097;-72
2022/11/15 11:10:23;;;;;;;12.10;8.63;;;;;;;;;;4974886;28;20127;-72
2022/11/15 11:12:49;;;;;;;11.20;8.40;;;;;;;;;;4973314;28;20031;-72
2022/11/15 11:15:15;;;;;;;9.35;7.43;;;;;;;;;;4974858;28;20014;-72
2022/11/15 11:17:58;;;;;;;13.75;9.07;;;;;;;;;;4989512;28;20078;-72
2022/11/15 11:20:33;;;;;;;10.95;7.80;;;;;;;;;;4974745;28;20031;-72
2022/11/15 11:23:17;;;;;;;7.28;6.28;;;;;;;;;;4974521;28;20054;-72
2022/11/15 11:25:49;;;;;;;10.13;7.35;;;;;;;;;;4973847;28;20035;-72
2022/11/15 11:28:25;;;;;;;9.05;6.63;;;;;;;;;;4974769;28;20077;-72
2022/11/15 11:30:58;;;;;;;10.18;6.35;;;;;;;;;;4976722;28;20109;-72
2022/11/15 11:33:44;;;;;;;9.35;7.10;;;;;;;;;;4978651;28;20042;-72
2022/11/15 11:36:27;;;;;;;7.40;5.30;;;;;;;;;;4976678;28;20057;-72
2022/11/15 11:38:58;;;;;;;9.70;6.80;;;;;;;;;;4992987;28;20467;-72
2022/11/15 11:41:37;;;;;;;10.32;6.30;;;;;;;;;;4978289;28;20078;-72
2022/11/15 11:44:02;;;;;;;13.45;8.93;;;;;;;;;;4976751;28;20038;-72
2022/11/15 11:46:49;;;;;;;9.98;7.32;;;;;;;;;;4978156;28;20034;-71
2022/11/15 11:49:33;;;;;;;8.52;6.68;;;;;;;;;;4978190;28;20034;-72
2022/11/15 11:52:21;;;;;;;9.52;6.85;;;;;;;;;;4976559;28;20372;-71
2022/11/15 11:54:53;;;;;;;13.85;7.55;;;;;;;;;;4977515;28;20037;-71
2022/11/15 11:57:25;;;;;;;9.88;7.53;;;;;;;;;;4977496;28;20053;-71
2022/11/15 12:00:03;;;;;;;9.25;7.43;;;;;;;;;;4976356;28;20420;-71
2022/11/15 12:02:47;;;;;;;13.70;8.25;;;;;;;;;;4977851;28;20039;-72
2022/11/15 12:05:22;;;;;;;10.80;8.00;;;;;;;;;;4992441;28;20423;-72
2022/11/15 12:07:48;;;;;;;10.93;8.10;;;;;;;;;;4977455;28;20470;-72
2022/11/15 12:10:22;;;;;;;11.00;8.30;;;;;;;;;;4977814;28;20053;-71
2022/11/15 12:13:02;;;;;;;10.05;8.32;;;;;;;;;;4976525;28;20030;-72
2022/11/15 12:15:31;;;;;;;13.60;8.10;;;;;;;;;;4977421;28;20475;-72
2022/11/15 12:17:57;;;;;;;15.18;9.25;;;;;;;;;;4974425;28;20471;-72
2022/11/15 12:20:25;;;;;;;12.93;8.32;;;;;;;;;;4975930;28;20034;-72
2022/11/15 12:22:55;;;;;;;11.13;8.55;;;;;;;;;;4975847;28;20026;-72
2022/11/15 12:25:24;;;;;;;11.75;8.63;;;;;;;;;;4976097;28;20038;-71
2022/11/15 12:27:56;;;;;;;13.70;9.00;;;;;;;;;;4974970;28;20054;-72
2022/11/15 12:30:22;;;;;;;14.93;10.60;;;;;;;;;;4974540;28;20033;-72
2022/11/15 12:32:56;;;;;;;16.27;10.40;;;;;;;;;;4975775;28;20023;-72
2022/11/15 12:35:25;;;;;;;14.77;10.05;;;;;;;;;;4975917;28;20418;-72
2022/11/15 12:37:51;;;;;;;14.40;9.50;;;;;;;;;;4975774;28;20078;-72
2022/11/15 12:40:26;;;;;;;13.52;9.50;;;;;;;;;;4975727;28;20546;-72
2022/11/15 12:43:10;;;;;;;17.40;9.98;;;;;;;;;;4973593;28;20043;-72
2022/11/15 12:45:37;;;;;;;15.65;9.73;;;;;;;;;;4975630;28;20491;-72
2022/11/15 12:48:17;;;;;;;13.05;9.75;;;;;;;;;;4975872;28;20450;-72
2022/11/15 12:50:43;;;;;;;;;;;;;;;;;;4975305;28;20120;-72
2022/11/15 12:53:24;;;;;;;15.83;10.20;;;;;;;;;;4974751;28;20052;-71
2022/11/15 12:56:04;;;;;;;14.73;9.88;;;;;;;;;;4975293;28;20077;-72
2022/11/15 12:58:42;;;;;;;15.07;10.40;;;;;;;;;;4974110;28;20022;-72
2022/11/15 13:01:08;;;;;;;12.70;9.48;;;;;;;;;;4975274;28;20435;-72
2022/11/15 13:03:33;;;;;;;14.13;9.55;;;;;;;;;;4974512;28;20181;-72
2022/11/15 13:06:00;;;;;;;17.52;10.55;;;;;;;;;;4973653;28;20073;-72
2022/11/15 13:08:35;;;;;;;20.08;12.02;;;;;;;;;;4974141;28;20030;-72
2022/11/15 13:11:21;;;;;;;14.23;9.70;;;;;;;;;;4990023;28;20034;-72
2022/11/15 13:13:46;;;;;;;18.13;11.38;;;;;;;;;;4975035;28;20062;-72
2022/11/15 13:16:17;;;;;;;21.55;12.57;;;;;;;;;;4974963;28;20027;-72
2022/11/15 13:18:43;;;;;;;23.65;13.05;;;;;;;;;;4975121;28;20109;-72
2022/11/15 13:24:03;;;;;;;33.70;16.48;;;;;;;;;;4974525;28;20126;-72
2022/11/15 13:26:28;;;;;;;30.10;16.27;;;;;;;;;;4973212;28;20101;-71
2022/11/15 13:28:58;;;;;;;35.03;17.00;;;;;;;;;;4973855;28;20435;-72
2022/11/15 13:31:37;;;;;;;36.25;17.73;;;;;;;;;;4974985;28;20038;-71
2022/11/15 13:34:14;;;;;;;36.67;18.02;;;;;;;;;;4975217;28;20057;-72
2022/11/15 13:36:39;;;;;;;34.55;17.10;;;;;;;;;;4973890;28;20048;-72
2022/11/15 13:39:06;;;;;;;34.47;16.90;;;;;;;;;;4974270;28;20019;-71
2022/11/15 13:41:33;;;;;;;36.55;17.40;;;;;;;;;;4974857;28;20023;-71
2022/11/15 13:44:00;;;;;;;40.55;19.63;;;;;;;;;;4973385;28;20023;-72
2022/11/15 13:46:27;;;;;;;45.38;21.25;;;;;;;;;;4974709;28;20509;-71
2022/11/15 13:48:54;;;;;;;48.72;22.65;;;;;;;;;;4989372;28;20022;-72
2022/11/15 13:51:25;;;;;;;55.90;23.83;;;;;;;;;;4989416;28;20023;-72
2022/11/15 13:53:54;;;;;;;62.38;23.92;;;;;;;;;;4988919;28;20038;-71
2022/11/15 13:56:21;;;;;;;53.65;21.92;;;;;;;;;;4989549;28;20019;-72
2022/11/15 13:58:47;;;;;;;61.67;22.02;;;;;;;;;;4974396;28;20027;-72
2022/11/15 14:01:15;;;;;;;33.72;16.23;;;;;;;;;;4972906;28;20062;-72
2022/11/15 14:03:46;;;;;;;21.05;13.18;;;;;;;;;;4989613;28;20027;-72
2022/11/15 14:06:14;;;;;;;19.88;12.77;;;;;;;;;;4974389;28;20410;-71
2022/11/15 14:08:41;;;;;;;18.45;12.07;;;;;;;;;;4974354;28;20427;-72
2022/11/15 14:11:10;;;;;;;22.45;13.02;;;;;;;;;;4972882;28;20031;-72
2022/11/15 14:13:36;;;;;;;29.10;16.00;;;;;;;;;;4974194;28;20030;-71
2022/11/15 14:16:15;;;;;;;24.23;14.32;;;;;;;;;;4973982;28;20379;-72
2022/11/15 14:18:43;;;;;;;26.15;15.10;;;;;;;;;;4972491;28;20031;-72
2022/11/15 14:21:09;;;;;;;42.90;21.90;;;;;;;;;;4972171;28;20050;-72
2022/11/15 14:23:34;;;;;;;32.75;18.38;;;;;;;;;;4973193;28;20517;-72
2022/11/15 14:25:59;;;;;;;40.17;19.80;;;;;;;;;;4971963;28;20526;-72
2022/11/15 14:28:25;;;;;;;57.80;26.15;;;;;;;;;;4973562;28;20127;-72
2022/11/15 14:30:52;;;;;;;52.15;24.15;;;;;;;;;;4974421;28;20415;-72
2022/11/15 14:33:28;;;;;;;42.30;22.75;;;;;;;;;;4973654;28;20449;-72
2022/11/15 14:35:55;;;;;;;110.53;57.53;;;;;;;;;;4972220;28;20041;-72
2022/11/15 14:38:20;;;;;;;52.65;29.70;;;;;;;;;;4974493;28;20023;-72
2022/11/15 14:40:46;;;;;;;102.25;49.13;;;;;;;;;;4974388;28;20023;-72
2022/11/15 14:43:12;;;;;;;76.13;36.63;;;;;;;;;;4973284;28;20043;-72
2022/11/15 14:45:37;;;;;;;318.73;123.90;;;;;;;;;;4973345;28;20391;-72
2022/11/15 14:48:03;;;;;;;238.05;102.25;;;;;;;;;;4973305;28;20467;-72
2022/11/15 14:50:28;;;;;;;66.35;33.25;;;;;;;;;;4973609;28;20487;-72
2022/11/15 14:52:53;;;;;;;71.40;34.33;;;;;;;;;;4973301;28;20368;-72
2022/11/15 14:55:24;;;;;;;86.57;41.75;;;;;;;;;;4973805;28;20471;-72
2022/11/15 14:57:50;;;;;;;97.43;49.45;;;;;;;;;;4975004;28;20375;-72
2022/11/15 15:00:15;;;;;;;88.13;46.90;;;;;;;;;;4974781;28;20032;-72
2022/11/15 15:02:42;;;;;;;85.30;45.80;;;;;;;;;;4987585;28;20042;-72
2022/11/15 15:05:28;;;;;;;93.13;44.85;;;;;;;;;;4973944;28;20058;-72
2022/11/15 15:07:53;;;;;;;92.25;45.05;;;;;;;;;;4973306;28;20042;-72
2022/11/15 15:10:18;;;;;;;88.13;43.80;;;;;;;;;;4976183;28;20122;-72
2022/11/15 15:12:44;;;;;;;93.60;45.50;;;;;;;;;;4977764;28;20475;-72
2022/11/15 15:15:12;;;;;;;79.40;37.15;;;;;;;;;;4975903;28;20065;-72
2022/11/15 15:17:38;;;;;;;82.18;39.00;;;;;;;;;;4977377;28;20065;-72
2022/11/15 15:20:03;;;;;;;74.15;36.95;;;;;;;;;;4977393;28;20047;-72
2022/11/15 15:22:29;;;;;;;71.47;35.60;;;;;;;;;;4977041;28;20161;-72
2022/11/15 15:24:55;;;;;;;82.82;41.03;;;;;;;;;;4975519;28;20440;-72
2022/11/15 15:27:20;;;;;;;69.63;34.85;;;;;;;;;;4976964;28;20057;-72
2022/11/15 15:29:45;;;;;;;82.03;41.53;;;;;;;;;;4977103;28;20022;-72
2022/11/15 15:32:12;;;;;;;86.85;43.92;;;;;;;;;;4977257;28;20085;-72
2022/11/15 15:34:39;;;;;;;60.08;32.25;;;;;;;;;;4977162;28;20323;-72
2022/11/15 15:37:07;;;;;;;58.42;33.40;;;;;;;;;;4977054;28;20110;-72
2022/11/15 15:39:32;;;;;;;59.70;29.50;;;;;;;;;;4977120;28;20015;-72
2022/11/15 15:41:58;;;;;;;41.92;23.88;;;;;;;;;;4976138;28;20243;-72
2022/11/15 15:44:23;;;;;;;42.83;24.35;;;;;;;;;;4975808;28;20101;-72
2022/11/15 15:46:48;;;;;;;59.97;32.00;;;;;;;;;;4976492;28;20483;-72
2022/11/15 15:49:14;;;;;;;63.47;33.47;;;;;;;;;;4975414;28;20023;-72